createdAt,value
2023-02-13T00:03:25.648Z,5.20
2023-02-13T00:08:28.744Z,5.20
2023-02-13T00:13:31.847Z,5.20
2023-02-13T00:18:37.077Z,5.20
2023-02-13T00:23:40.642Z,5.20
2023-02-13T00:28:45.883Z,5.20
2023-02-13T00:33:49.152Z,5.10
2023-02-13T00:38:53.821Z,5.10
2023-02-13T00:43:56.981Z,5.10
2023-02-13T00:49:00.164Z,5.10
2023-02-13T00:54:03.284Z,5.10
2023-02-13T00:59:06.458Z,5.00
2023-02-13T01:04:09.712Z,5.00
2023-02-13T01:09:12.988Z,5.00
2023-02-13T01:14:16.084Z,5.00
2023-02-13T01:19:19.243Z,5.00
2023-02-13T01:24:22.417Z,5.10
2023-02-13T01:29:25.705Z,5.10
2023-02-13T01:34:28.889Z,5.10
2023-02-13T01:39:32.281Z,5.00
2023-02-13T01:44:56.906Z,5.00
2023-02-13T01:50:16.530Z,5.00
2023-02-13T01:55:20.065Z,5.10
2023-02-13T02:00:23.651Z,5.00
2023-02-13T02:05:31.228Z,5.10
2023-02-13T02:10:35.066Z,5.10
2023-02-13T02:15:38.326Z,5.10
2023-02-13T02:20:53.262Z,5.10
2023-02-13T02:26:02.229Z,5.10
2023-02-13T02:31:39.439Z,5.10
2023-02-13T02:37:19.616Z,5.20
2023-02-13T02:42:51.217Z,5.20
2023-02-13T02:48:26.442Z,5.20
2023-02-13T02:53:42.565Z,5.10
2023-02-13T02:59:19.549Z,5.10
2023-02-13T03:04:59.863Z,5.10
2023-02-13T03:10:28.732Z,5.20
2023-02-13T03:15:33.889Z,5.20
2023-02-13T03:21:12.100Z,5.30
2023-02-13T03:26:33.522Z,5.40
2023-02-13T03:31:45.404Z,5.50
2023-02-13T03:37:20.766Z,5.50
2023-02-13T03:42:45.682Z,5.60
2023-02-13T03:47:52.320Z,5.60
2023-02-13T03:53:08.749Z,5.70
2023-02-13T03:58:42.918Z,5.80
2023-02-13T04:04:10.918Z,5.80
2023-02-13T04:09:14.389Z,5.90
2023-02-13T04:14:26.046Z,5.90
2023-02-13T04:19:29.410Z,5.90
2023-02-13T04:24:32.585Z,5.90
2023-02-13T04:29:35.718Z,5.90
2023-02-13T04:34:39.516Z,5.90
2023-02-13T04:39:42.601Z,5.90
2023-02-13T04:44:45.840Z,6.00
2023-02-13T04:49:49.139Z,5.90
2023-02-13T04:54:52.358Z,5.90
2023-02-13T04:59:55.601Z,5.90
2023-02-13T05:04:58.712Z,6.00
2023-02-13T05:10:01.848Z,6.00
2023-02-13T05:15:06.571Z,6.00
2023-02-13T05:20:10.263Z,6.00
2023-02-13T05:25:13.563Z,6.00
2023-02-13T05:30:16.664Z,6.00
2023-02-13T05:35:20.125Z,6.00
2023-02-13T05:40:23.434Z,6.00
2023-02-13T05:45:26.542Z,6.00
2023-02-13T05:50:29.786Z,5.90
2023-02-13T05:55:32.894Z,5.90
2023-02-13T06:00:36.122Z,5.90
2023-02-13T06:05:39.241Z,5.90
2023-02-13T06:10:44.902Z,5.90
2023-02-13T06:15:48.508Z,5.90
2023-02-13T06:20:51.759Z,5.90
2023-02-13T06:25:54.919Z,5.80
2023-02-13T06:31:02.151Z,5.80
2023-02-13T06:36:08.619Z,5.80
2023-02-13T06:41:11.796Z,5.80
2023-02-13T06:46:14.987Z,5.70
2023-02-13T06:51:18.042Z,5.70
2023-02-13T06:56:21.131Z,5.70
2023-02-13T07:01:24.644Z,5.70
2023-02-13T07:06:27.752Z,5.60
2023-02-13T07:11:31.630Z,5.70
2023-02-13T07:16:34.735Z,5.60
2023-02-13T07:21:38.492Z,5.60
2023-02-13T07:26:41.787Z,5.60
2023-02-13T07:31:45.076Z,5.60
2023-02-13T07:36:48.311Z,5.60
2023-02-13T07:41:52.462Z,5.60
2023-02-13T07:46:55.757Z,5.60
2023-02-13T07:51:58.948Z,5.70
2023-02-13T07:57:02.026Z,5.70
2023-02-13T08:02:05.267Z,5.80
2023-02-13T08:07:08.395Z,5.80
2023-02-13T08:12:11.885Z,5.80
2023-02-13T08:17:15.205Z,5.90
2023-02-13T08:22:18.363Z,5.90
2023-02-13T08:27:21.509Z,5.90
2023-02-13T08:32:25.340Z,6.00
2023-02-13T08:37:28.527Z,6.00
2023-02-13T08:42:31.761Z,6.10
2023-02-13T08:47:34.984Z,6.10
2023-02-13T08:52:38.284Z,6.20
2023-02-13T08:57:41.267Z,6.20
2023-02-13T09:02:44.773Z,6.20
2023-02-13T09:07:49.035Z,6.20
2023-02-13T09:12:56.162Z,6.20
2023-02-13T09:17:59.304Z,6.30
2023-02-13T09:23:02.413Z,6.30
2023-02-13T09:28:05.718Z,6.40
2023-02-13T09:33:14.689Z,6.50
2023-02-13T09:38:18.987Z,6.50
2023-02-13T09:43:32.304Z,6.60
2023-02-13T09:48:38.502Z,6.70
2023-02-13T09:53:43.839Z,6.80
2023-02-13T09:59:03.343Z,6.80
2023-02-13T10:04:25.321Z,6.90
2023-02-13T10:09:47.269Z,6.90
2023-02-13T10:15:29.129Z,7.00
2023-02-13T10:20:42.472Z,7.00
2023-02-13T10:26:05.043Z,7.10
2023-02-13T10:31:16.434Z,7.10
2023-02-13T10:36:26.114Z,7.10
2023-02-13T10:41:38.128Z,7.10
2023-02-13T10:47:03.984Z,7.10
2023-02-13T10:52:44.037Z,7.10
2023-02-13T10:58:04.567Z,7.10
2023-02-13T11:03:21.326Z,7.10
2023-02-13T11:08:34.327Z,7.10
2023-02-13T11:13:37.380Z,7.10
2023-02-13T11:18:44.691Z,7.10
2023-02-13T11:23:55.087Z,7.10
2023-02-13T11:29:15.563Z,7.10
2023-02-13T11:34:26.247Z,7.10
2023-02-13T11:39:33.665Z,7.20
2023-02-13T11:44:44.109Z,7.20
2023-02-13T11:49:48.360Z,7.20
2023-02-13T11:55:32.065Z,7.30
2023-02-13T12:00:39.184Z,7.30
2023-02-13T12:05:42.495Z,7.30
2023-02-13T12:10:45.900Z,7.30
2023-02-13T12:15:56.902Z,7.30
2023-02-13T12:21:31.524Z,7.30
2023-02-13T12:26:43.138Z,7.40
2023-02-13T12:32:11.453Z,7.40
2023-02-13T12:37:31.775Z,7.40
2023-02-13T12:43:00.896Z,7.40
2023-02-13T12:48:16.028Z,7.40
2023-02-13T12:53:32.579Z,7.40
2023-02-13T12:59:02.144Z,7.40
2023-02-13T13:04:08.432Z,7.30
2023-02-13T13:09:17.631Z,7.30
2023-02-13T13:14:32.499Z,7.40
2023-02-13T13:19:41.274Z,7.30
2023-02-13T13:25:02.457Z,7.40
2023-02-13T13:30:27.589Z,7.40
2023-02-13T13:35:31.968Z,7.40
2023-02-13T13:40:46.938Z,7.40
2023-02-13T13:46:11.966Z,7.30
2023-02-13T13:51:18.201Z,7.30
2023-02-13T13:56:21.554Z,7.20
2023-02-13T14:01:31.923Z,7.20
2023-02-13T14:06:50.516Z,7.20
2023-02-13T14:11:55.255Z,7.10
2023-02-13T14:17:00.097Z,7.10
2023-02-13T14:22:36.673Z,7.10
2023-02-13T14:27:40.849Z,7.00
2023-02-13T14:32:46.700Z,6.90
2023-02-13T14:37:58.703Z,6.90
2023-02-13T14:43:35.112Z,6.80
2023-02-13T14:48:46.361Z,6.80
2023-02-13T14:53:55.666Z,6.70
2023-02-13T14:59:12.113Z,6.70
2023-02-13T15:04:29.468Z,6.70
2023-02-13T15:09:39.566Z,6.60
2023-02-13T15:14:43.694Z,6.70
2023-02-13T15:19:56.057Z,6.60
2023-02-13T15:25:00.188Z,6.60
2023-02-13T15:30:19.532Z,6.60
2023-02-13T15:35:33.469Z,6.60
2023-02-13T15:40:42.448Z,6.50
2023-02-13T15:45:46.460Z,6.50
2023-02-13T15:50:49.901Z,6.40
2023-02-13T15:56:01.689Z,6.40
2023-02-13T16:01:09.169Z,6.40
2023-02-13T16:06:21.100Z,6.30
2023-02-13T16:11:40.184Z,6.30
2023-02-13T16:16:56.770Z,6.20
2023-02-13T16:22:22.961Z,6.20
2023-02-13T16:27:29.162Z,6.20
2023-02-13T16:32:39.540Z,6.10
2023-02-13T16:37:52.466Z,6.10
2023-02-13T16:43:34.096Z,6.10
2023-02-13T16:48:38.887Z,6.20
2023-02-13T16:53:42.560Z,6.10
2023-02-13T16:58:46.450Z,6.00
2023-02-13T17:03:50.575Z,5.90
2023-02-13T17:08:59.476Z,5.80
2023-02-13T17:14:05.103Z,5.70
2023-02-13T17:19:09.617Z,5.60
2023-02-13T17:24:19.338Z,5.50
2023-02-13T17:29:23.788Z,5.40
2023-02-13T17:34:27.690Z,5.40
2023-02-13T17:39:33.680Z,5.40
2023-02-13T17:44:39.440Z,5.40
2023-02-13T17:49:43.803Z,5.40
2023-02-13T17:54:51.320Z,5.40
2023-02-13T17:59:58.662Z,5.40
2023-02-13T18:05:05.700Z,5.50
2023-02-13T18:10:23.191Z,5.50
2023-02-13T18:15:29.830Z,5.40
2023-02-13T18:20:35.382Z,5.50
2023-02-13T18:25:39.868Z,5.50
2023-02-13T18:30:44.831Z,5.50
2023-02-13T18:35:49.518Z,5.40
2023-02-13T18:40:54.942Z,5.40
2023-02-13T18:45:59.546Z,5.40
2023-02-13T18:51:04.549Z,5.30
2023-02-13T18:56:10.725Z,5.20
2023-02-13T19:01:19.969Z,5.20
2023-02-13T19:06:27.016Z,5.10
2023-02-13T19:11:35.060Z,5.00
2023-02-13T19:16:42.313Z,5.00
2023-02-13T19:21:51.263Z,4.90
2023-02-13T19:26:59.301Z,4.80
2023-02-13T19:32:03.392Z,4.70
2023-02-13T19:37:08.617Z,4.70
2023-02-13T19:42:13.505Z,4.60
2023-02-13T19:47:24.516Z,4.50
2023-02-13T19:52:32.515Z,4.40
2023-02-13T19:57:39.797Z,4.40
2023-02-13T20:02:45.574Z,4.30
2023-02-13T20:07:52.288Z,4.30
2023-02-13T20:12:59.662Z,4.20
2023-02-13T20:18:06.430Z,4.10
2023-02-13T20:23:11.101Z,4.00
2023-02-13T20:28:16.893Z,4.00
2023-02-13T20:33:23.092Z,3.90
2023-02-13T20:38:27.646Z,3.80
2023-02-13T20:43:33.600Z,3.80
2023-02-13T20:48:39.068Z,3.80
2023-02-13T20:53:47.374Z,3.80
2023-02-13T20:58:54.465Z,3.80
2023-02-13T21:04:02.277Z,3.80
2023-02-13T21:09:09.852Z,3.70
2023-02-13T21:14:18.196Z,3.60
2023-02-13T21:19:24.928Z,3.50
2023-02-13T21:24:35.957Z,3.50
2023-02-13T21:29:42.821Z,3.50
2023-02-13T21:34:47.551Z,3.40
2023-02-13T21:39:52.432Z,3.40
2023-02-13T21:44:56.546Z,3.40
2023-02-13T21:50:01.086Z,3.40
2023-02-13T21:55:06.484Z,3.30
2023-02-13T22:00:11.929Z,3.30
2023-02-13T22:05:15.919Z,3.20
2023-02-13T22:10:19.318Z,3.20
2023-02-13T22:15:23.408Z,3.20
2023-02-13T22:20:26.811Z,3.10
2023-02-13T22:25:30.138Z,3.10
2023-02-13T22:30:33.882Z,3.00
2023-02-13T22:35:41.638Z,2.90
2023-02-13T22:40:46.026Z,2.90
2023-02-13T22:45:49.524Z,2.90
2023-02-13T22:50:52.767Z,2.90
2023-02-13T22:55:56.687Z,2.90
2023-02-13T23:01:00.786Z,2.90
2023-02-13T23:06:05.573Z,2.80
2023-02-13T23:11:50.367Z,2.80
2023-02-13T23:17:12.380Z,2.80
2023-02-13T23:22:16.696Z,2.70
2023-02-13T23:27:20.119Z,2.70
2023-02-13T23:32:23.454Z,2.70
2023-02-13T23:37:26.798Z,2.70
2023-02-13T23:42:30.288Z,2.80
2023-02-13T23:47:33.636Z,2.90
2023-02-13T23:52:36.959Z,2.90
2023-02-13T23:57:40.291Z,2.90
